createdAt,value
2023-02-18T00:03:25.481Z,17.40
2023-02-18T00:06:03.279Z,17.40
2023-02-18T00:08:33.805Z,17.40
2023-02-18T00:11:10.301Z,17.40
2023-02-18T00:13:37.813Z,17.40
2023-02-18T00:16:13.127Z,17.40
2023-02-18T00:18:41.059Z,17.40
2023-02-18T00:21:12.636Z,17.40
2023-02-18T00:23:45.137Z,17.40
2023-02-18T00:26:17.832Z,17.40
2023-02-18T00:28:51.794Z,17.40
2023-02-18T00:31:27.108Z,17.40
2023-02-18T00:33:58.137Z,17.40
2023-02-18T00:36:29.732Z,17.40
2023-02-18T00:39:03.711Z,17.40
2023-02-18T00:41:32.793Z,17.40
2023-02-18T00:44:04.574Z,17.40
2023-02-18T00:46:37.603Z,17.40
2023-02-18T00:49:06.641Z,17.40
2023-02-18T00:51:37.542Z,17.40
2023-02-18T00:54:07.959Z,17.40
2023-02-18T00:56:38.178Z,17.40
2023-02-18T00:59:10.482Z,17.40
2023-02-18T01:01:41.966Z,17.40
2023-02-18T01:04:11.468Z,17.40
2023-02-18T01:06:41.883Z,17.40
2023-02-18T01:09:12.962Z,17.40
2023-02-18T01:11:41.178Z,17.40
2023-02-18T01:14:13.188Z,17.40
2023-02-18T01:16:43.684Z,17.40
2023-02-18T01:19:15.936Z,17.40
2023-02-18T01:21:46.129Z,17.40
2023-02-18T01:24:17.878Z,17.40
2023-02-18T01:26:49.282Z,17.40
2023-02-18T01:29:18.825Z,17.40
2023-02-18T01:31:49.169Z,17.40
2023-02-18T01:34:19.047Z,17.40
2023-02-18T01:36:46.929Z,17.40
2023-02-18T01:39:17.603Z,17.40
2023-02-18T01:41:48.885Z,17.40
2023-02-18T01:44:27.515Z,17.40
2023-02-18T01:46:59.814Z,17.40
2023-02-18T01:49:38.344Z,17.40
2023-02-18T01:52:26.418Z,17.40
2023-02-18T01:55:00.244Z,17.40
2023-02-18T01:57:39.058Z,17.40
2023-02-18T02:00:17.112Z,17.40
2023-02-18T02:08:25.291Z,17.40
2023-02-18T02:11:25.242Z,17.40
2023-02-18T02:14:08.949Z,17.40
2023-02-18T02:17:05.318Z,17.40
2023-02-18T02:19:55.507Z,17.40
2023-02-18T02:26:17.732Z,17.40
2023-02-18T02:29:24.351Z,17.40
2023-02-18T02:32:20.281Z,17.40
2023-02-18T02:35:27.894Z,17.40
2023-02-18T02:38:25.733Z,17.40
2023-02-18T02:41:33.817Z,17.40
2023-02-18T02:44:36.928Z,17.40
2023-02-18T02:50:56.782Z,17.30
2023-02-18T02:53:41.547Z,17.40
2023-02-18T02:56:24.686Z,17.30
2023-02-18T02:59:07.927Z,17.30
2023-02-18T03:02:25.981Z,17.40
2023-02-18T03:05:31.979Z,17.40
2023-02-18T03:08:30.856Z,17.40
2023-02-18T03:13:59.739Z,17.30
2023-02-18T03:17:04.279Z,17.30
2023-02-18T03:19:58.253Z,17.30
2023-02-18T03:22:39.226Z,17.30
2023-02-18T03:25:08.734Z,17.30
2023-02-18T03:27:46.647Z,17.30
2023-02-18T03:30:24.421Z,17.30
2023-02-18T03:35:40.747Z,17.40
2023-02-18T03:38:51.401Z,17.30
2023-02-18T03:41:22.584Z,17.40
2023-02-18T03:44:00.022Z,17.30
2023-02-18T03:46:30.018Z,17.30
2023-02-18T03:49:01.814Z,17.30
2023-02-18T03:51:29.884Z,17.30
2023-02-18T03:54:00.010Z,17.40
2023-02-18T03:56:29.745Z,17.30
2023-02-18T03:58:58.788Z,17.40
2023-02-18T04:01:28.662Z,17.30
2023-02-18T04:03:58.570Z,17.30
2023-02-18T04:06:27.759Z,17.30
2023-02-18T04:08:57.681Z,17.30
2023-02-18T04:11:27.228Z,17.30
2023-02-18T04:13:57.541Z,17.30
2023-02-18T04:16:26.643Z,17.30
2023-02-18T04:18:57.421Z,17.30
2023-02-18T04:21:26.959Z,17.30
2023-02-18T04:23:57.999Z,17.40
2023-02-18T04:26:26.102Z,17.30
2023-02-18T04:28:55.259Z,17.30
2023-02-18T04:31:25.361Z,17.40
2023-02-18T04:33:56.035Z,17.40
2023-02-18T04:36:26.438Z,17.30
2023-02-18T04:38:54.483Z,17.30
2023-02-18T04:41:34.005Z,17.30
2023-02-18T04:44:04.660Z,17.30
2023-02-18T04:46:36.321Z,17.30
2023-02-18T04:49:06.163Z,17.30
2023-02-18T04:51:40.991Z,17.30
2023-02-18T04:54:17.656Z,17.30
2023-02-18T04:56:46.828Z,17.30
2023-02-18T04:59:18.730Z,17.30
2023-02-18T05:01:46.611Z,17.30
2023-02-18T05:04:16.852Z,17.30
2023-02-18T05:06:45.298Z,17.30
2023-02-18T05:09:16.162Z,17.30
2023-02-18T05:11:46.095Z,17.30
2023-02-18T05:17:02.432Z,17.30
2023-02-18T05:19:31.624Z,17.30
2023-02-18T05:22:08.854Z,17.30
2023-02-18T05:24:40.315Z,17.30
2023-02-18T05:27:12.043Z,17.30
2023-02-18T05:29:43.792Z,17.30
2023-02-18T05:32:14.566Z,17.30
2023-02-18T05:34:50.566Z,17.30
2023-02-18T05:37:23.096Z,17.30
2023-02-18T05:39:53.649Z,17.30
2023-02-18T05:42:26.773Z,17.30
2023-02-18T05:44:58.798Z,17.30
2023-02-18T05:47:30.725Z,17.30
2023-02-18T05:52:43.496Z,17.30
2023-02-18T05:55:15.267Z,17.30
2023-02-18T05:57:46.691Z,17.30
2023-02-18T06:00:20.548Z,17.30
2023-02-18T06:02:50.484Z,17.30
2023-02-18T06:05:21.987Z,17.20
2023-02-18T06:07:49.126Z,17.30
2023-02-18T06:10:19.842Z,17.20
2023-02-18T06:12:51.190Z,17.30
2023-02-18T06:15:20.406Z,17.30
2023-02-18T06:17:50.686Z,17.20
2023-02-18T06:20:24.497Z,17.20
2023-02-18T06:22:54.002Z,17.20
2023-02-18T06:25:24.909Z,17.20
2023-02-18T06:27:57.031Z,17.20
2023-02-18T06:30:27.458Z,17.20
2023-02-18T06:32:59.149Z,17.20
2023-02-18T06:35:30.298Z,17.20
2023-02-18T06:38:01.603Z,17.20
2023-02-18T06:40:36.274Z,17.20
2023-02-18T06:43:06.670Z,17.20
2023-02-18T06:45:35.842Z,17.20
2023-02-18T06:48:07.827Z,17.20
2023-02-18T06:50:39.138Z,17.20
2023-02-18T06:53:09.900Z,17.30
2023-02-18T06:55:40.729Z,17.20
2023-02-18T06:58:17.337Z,17.20
2023-02-18T07:00:47.814Z,17.20
2023-02-18T07:03:18.986Z,17.20
2023-02-18T07:05:49.529Z,17.20
2023-02-18T07:08:18.174Z,17.20
2023-02-18T07:10:50.482Z,17.20
2023-02-18T07:13:17.709Z,17.20
2023-02-18T07:15:46.573Z,17.20
2023-02-18T07:18:19.112Z,17.20
2023-02-18T07:20:50.217Z,17.30
2023-02-18T07:23:21.671Z,17.20
2023-02-18T07:25:52.457Z,17.20
2023-02-18T07:28:21.348Z,17.20
2023-02-18T07:30:49.700Z,17.20
2023-02-18T07:33:18.948Z,17.20
2023-02-18T07:35:52.860Z,17.30
2023-02-18T07:38:25.398Z,17.30
2023-02-18T07:40:57.694Z,17.30
2023-02-18T07:43:30.888Z,17.30
2023-02-18T07:46:00.739Z,17.20
2023-02-18T07:48:32.946Z,17.20
2023-02-18T07:51:03.216Z,17.30
2023-02-18T07:53:33.487Z,17.30
2023-02-18T07:56:04.732Z,17.20
2023-02-18T07:58:34.793Z,17.20
2023-02-18T08:01:09.892Z,17.20
2023-02-18T08:03:41.959Z,17.30
2023-02-18T08:06:29.471Z,17.30
2023-02-18T08:08:59.887Z,17.30
2023-02-18T08:11:31.847Z,17.20
2023-02-18T08:14:15.100Z,17.20
2023-02-18T08:16:46.262Z,17.20
2023-02-18T08:19:15.405Z,17.20
2023-02-18T08:21:46.321Z,17.20
2023-02-18T08:24:17.668Z,17.20
2023-02-18T08:26:59.911Z,17.30
2023-02-18T08:29:31.461Z,17.20
2023-02-18T08:32:02.991Z,17.30
2023-02-18T08:34:33.404Z,17.30
2023-02-18T08:37:08.306Z,17.30
2023-02-18T08:39:41.577Z,17.30
2023-02-18T08:42:12.074Z,17.30
2023-02-18T08:44:46.488Z,17.30
2023-02-18T08:48:16.646Z,17.30
2023-02-18T08:50:18.846Z,17.40
2023-02-18T08:52:51.231Z,17.40
2023-02-18T08:55:36.721Z,17.40
2023-02-18T08:58:09.928Z,17.40
2023-02-18T09:00:44.479Z,17.40
2023-02-18T09:03:18.728Z,17.50
2023-02-18T09:05:49.107Z,17.50
2023-02-18T09:08:22.011Z,17.50
2023-02-18T09:10:57.060Z,17.50
2023-02-18T09:13:24.602Z,17.50
2023-02-18T09:16:05.846Z,17.50
2023-02-18T09:18:41.209Z,17.60
2023-02-18T09:21:12.594Z,17.60
2023-02-18T09:23:41.619Z,17.60
2023-02-18T09:26:17.862Z,17.60
2023-02-18T09:28:51.610Z,17.60
2023-02-18T09:31:24.651Z,17.50
2023-02-18T09:34:00.528Z,17.60
2023-02-18T09:36:33.512Z,17.60
2023-02-18T09:39:05.405Z,17.60
2023-02-18T09:41:47.101Z,17.60
2023-02-18T09:44:32.738Z,17.60
2023-02-18T09:47:29.498Z,17.60
2023-02-18T09:53:11.147Z,17.60
2023-02-18T09:55:49.278Z,17.60
2023-02-18T09:58:24.075Z,17.60
2023-02-18T10:01:08.107Z,17.60
2023-02-18T10:03:38.242Z,17.60
2023-02-18T10:06:21.975Z,17.60
2023-02-18T10:08:55.191Z,17.60
2023-02-18T10:11:42.683Z,17.60
2023-02-18T10:14:17.659Z,17.60
2023-02-18T10:16:51.838Z,17.60
2023-02-18T10:19:28.516Z,17.70
2023-02-18T10:21:59.342Z,17.60
2023-02-18T10:24:46.969Z,17.70
2023-02-18T10:27:43.649Z,17.70
2023-02-18T10:30:45.778Z,17.60
2023-02-18T10:33:37.662Z,17.70
2023-02-18T10:36:28.917Z,17.70
2023-02-18T10:39:33.549Z,17.60
2023-02-18T10:42:33.200Z,17.70
2023-02-18T10:45:38.170Z,17.70
2023-02-18T10:48:53.457Z,17.70
2023-02-18T10:51:26.076Z,17.70
2023-02-18T10:53:57.738Z,17.70
2023-02-18T10:56:50.720Z,17.70
2023-02-18T10:59:32.559Z,17.70
2023-02-18T11:02:16.510Z,17.70
2023-02-18T11:04:49.410Z,17.70
2023-02-18T11:07:25.225Z,17.70
2023-02-18T11:12:56.908Z,17.80
2023-02-18T11:15:28.904Z,17.80
2023-02-18T11:18:14.507Z,17.80
2023-02-18T11:20:57.462Z,17.80
2023-02-18T11:23:28.079Z,17.80
2023-02-18T11:26:12.357Z,17.80
2023-02-18T11:28:52.343Z,17.80
2023-02-18T11:31:44.366Z,17.80
2023-02-18T11:34:25.699Z,17.80
2023-02-18T11:36:57.174Z,17.80
2023-02-18T11:39:28.693Z,17.80
2023-02-18T11:42:02.945Z,17.80
2023-02-18T11:44:58.100Z,17.80
2023-02-18T11:47:43.191Z,17.80
2023-02-18T11:50:31.846Z,17.80
2023-02-18T11:53:03.459Z,17.80
2023-02-18T11:55:33.314Z,17.80
2023-02-18T11:58:07.868Z,17.80
2023-02-18T12:00:46.393Z,17.80
2023-02-18T12:03:45.114Z,17.80
2023-02-18T12:06:26.551Z,17.70
2023-02-18T12:09:08.365Z,17.80
2023-02-18T12:11:49.068Z,17.70
2023-02-18T12:14:24.896Z,17.70
2023-02-18T12:17:13.972Z,17.80
2023-02-18T12:20:17.737Z,17.70
2023-02-18T12:23:24.574Z,17.70
2023-02-18T12:26:05.817Z,17.70
2023-02-18T12:29:06.268Z,17.70
2023-02-18T12:32:15.408Z,17.70
2023-02-18T12:35:16.902Z,17.70
2023-02-18T12:37:55.576Z,17.70
2023-02-18T12:40:38.216Z,17.70
2023-02-18T12:43:42.372Z,17.70
2023-02-18T12:46:54.352Z,17.70
2023-02-18T12:49:59.735Z,17.70
2023-02-18T12:53:07.234Z,17.70
2023-02-18T12:55:48.030Z,17.70
2023-02-18T12:58:36.759Z,17.70
2023-02-18T13:01:26.928Z,17.70
2023-02-18T13:04:20.091Z,17.60
2023-02-18T13:07:18.365Z,17.60
2023-02-18T13:10:18.192Z,17.60
2023-02-18T13:12:59.707Z,17.60
2023-02-18T13:16:06.886Z,17.60
2023-02-18T13:18:49.189Z,17.60
2023-02-18T13:21:20.594Z,17.60
2023-02-18T13:23:59.694Z,17.60
2023-02-18T13:26:36.983Z,17.60
2023-02-18T13:29:16.092Z,17.60
2023-02-18T13:32:41.309Z,17.60
2023-02-18T13:35:26.642Z,17.60
2023-02-18T13:38:13.130Z,17.60
2023-02-18T13:40:44.703Z,17.60
2023-02-18T13:43:37.229Z,17.60
2023-02-18T13:46:17.390Z,17.60
2023-02-18T13:49:01.319Z,17.60
2023-02-18T13:51:46.929Z,17.60
2023-02-18T13:54:20.940Z,17.60
2023-02-18T13:57:12.801Z,17.60
2023-02-18T13:59:47.903Z,17.60
2023-02-18T14:02:29.661Z,17.60
2023-02-18T14:05:24.207Z,17.60
2023-02-18T14:08:03.193Z,17.50
2023-02-18T14:10:40.703Z,17.60
2023-02-18T14:13:45.233Z,17.60
2023-02-18T14:16:16.956Z,17.60
2023-02-18T14:18:45.739Z,17.70
2023-02-18T14:21:14.901Z,17.60
2023-02-18T14:24:00.452Z,17.60
2023-02-18T14:26:47.407Z,17.70
2023-02-18T14:29:28.971Z,17.60
2023-02-18T14:32:03.799Z,17.60
2023-02-18T14:34:45.275Z,17.60
2023-02-18T14:37:53.363Z,17.60
2023-02-18T14:40:34.543Z,17.60
2023-02-18T14:43:23.114Z,17.60
2023-02-18T14:46:23.249Z,17.60
2023-02-18T14:49:31.599Z,17.60
2023-02-18T14:52:04.866Z,17.60
2023-02-18T14:54:39.290Z,17.60
2023-02-18T14:57:17.709Z,17.60
2023-02-18T14:59:50.669Z,17.60
2023-02-18T15:02:29.809Z,17.60
2023-02-18T15:05:29.140Z,17.60
2023-02-18T15:08:11.330Z,17.60
2023-02-18T15:11:05.816Z,17.60
2023-02-18T15:13:46.120Z,17.60
2023-02-18T15:16:33.068Z,17.60
2023-02-18T15:19:14.801Z,17.50
2023-02-18T15:22:04.556Z,17.60
2023-02-18T15:24:39.739Z,17.60
2023-02-18T15:27:30.587Z,17.60
2023-02-18T15:30:29.255Z,17.60
2023-02-18T15:33:02.273Z,17.70
2023-02-18T15:35:33.173Z,17.70
2023-02-18T15:38:04.220Z,17.70
2023-02-18T15:40:35.530Z,17.60
2023-02-18T15:43:06.477Z,17.60
2023-02-18T15:45:58.525Z,17.60
2023-02-18T15:48:57.221Z,17.60
2023-02-18T15:51:34.140Z,17.60
2023-02-18T15:54:05.544Z,17.60
2023-02-18T15:56:45.108Z,17.60
2023-02-18T15:59:44.326Z,17.60
2023-02-18T16:02:24.484Z,17.60
2023-02-18T16:05:05.622Z,17.60
2023-02-18T16:07:50.126Z,17.60
2023-02-18T16:10:39.192Z,17.60
2023-02-18T16:13:10.498Z,17.60
2023-02-18T16:15:52.716Z,17.60
2023-02-18T16:18:41.667Z,17.60
2023-02-18T16:21:40.364Z,17.60
2023-02-18T16:24:34.232Z,17.60
2023-02-18T16:27:06.687Z,17.50
2023-02-18T16:29:42.098Z,17.60
2023-02-18T16:32:12.678Z,17.60
2023-02-18T16:34:46.340Z,17.60
2023-02-18T16:37:37.504Z,17.60
2023-02-18T16:40:49.617Z,17.60
2023-02-18T16:43:37.883Z,17.60
2023-02-18T16:46:23.444Z,17.60
2023-02-18T16:48:58.541Z,17.70
2023-02-18T16:51:37.564Z,17.70
2023-02-18T16:54:12.173Z,17.80
2023-02-18T16:56:41.053Z,17.90
2023-02-18T16:59:12.873Z,17.90
2023-02-18T17:01:45.336Z,18.00
2023-02-18T17:04:23.186Z,18.00
2023-02-18T17:06:52.558Z,18.10
2023-02-18T17:09:28.243Z,18.10
2023-02-18T17:12:02.493Z,18.20
2023-02-18T17:14:32.995Z,18.20
2023-02-18T17:17:01.739Z,18.20
2023-02-18T17:19:32.998Z,18.20
2023-02-18T17:22:02.156Z,18.20
2023-02-18T17:24:32.583Z,18.20
2023-02-18T17:27:02.170Z,18.20
2023-02-18T17:29:33.572Z,18.20
2023-02-18T17:32:05.109Z,18.20
2023-02-18T17:34:38.523Z,18.10
2023-02-18T17:37:20.025Z,18.10
2023-02-18T17:39:46.763Z,18.20
2023-02-18T17:42:19.799Z,18.10
2023-02-18T17:44:53.466Z,18.10
2023-02-18T17:47:26.856Z,18.10
2023-02-18T17:49:57.190Z,18.10
2023-02-18T17:52:31.539Z,18.10
2023-02-18T17:54:59.951Z,18.10
2023-02-18T17:57:31.727Z,18.00
2023-02-18T18:00:01.841Z,18.10
2023-02-18T18:02:34.108Z,18.10
2023-02-18T18:05:05.384Z,18.10
2023-02-18T18:07:35.018Z,18.00
2023-02-18T18:10:04.722Z,18.00
2023-02-18T18:12:35.177Z,18.00
2023-02-18T18:15:10.711Z,18.00
2023-02-18T18:17:41.146Z,18.00
2023-02-18T18:20:11.651Z,17.90
2023-02-18T18:22:42.184Z,18.00
2023-02-18T18:25:26.756Z,18.00
2023-02-18T18:27:57.454Z,17.90
2023-02-18T18:30:33.928Z,17.90
2023-02-18T18:33:19.859Z,17.90
2023-02-18T18:35:55.062Z,17.90
2023-02-18T18:38:26.868Z,17.90
2023-02-18T18:40:55.931Z,17.90
2023-02-18T18:43:35.003Z,17.90
2023-02-18T18:46:04.850Z,17.90
2023-02-18T18:48:34.914Z,17.90
2023-02-18T18:51:09.201Z,17.80
2023-02-18T18:53:39.233Z,17.80
2023-02-18T18:56:11.967Z,17.80
2023-02-18T18:58:44.404Z,17.80
2023-02-18T19:01:26.811Z,17.80
2023-02-18T19:03:59.040Z,17.80
2023-02-18T19:06:27.270Z,17.70
2023-02-18T19:08:57.719Z,17.70
2023-02-18T19:11:26.885Z,17.70
2023-02-18T19:13:58.415Z,17.70
2023-02-18T19:19:27.083Z,17.70
2023-02-18T19:21:59.289Z,17.70
2023-02-18T19:24:27.802Z,17.70
2023-02-18T19:26:59.528Z,17.70
2023-02-18T19:29:30.130Z,17.70
2023-02-18T19:32:01.799Z,17.70
2023-02-18T19:34:32.163Z,17.60
2023-02-18T19:37:01.636Z,17.60
2023-02-18T19:39:31.755Z,17.60
2023-02-18T19:42:05.434Z,17.60
2023-02-18T19:44:37.303Z,17.60
2023-02-18T19:47:07.379Z,17.60
2023-02-18T19:49:35.488Z,17.60
2023-02-18T19:52:07.248Z,17.60
2023-02-18T19:54:37.868Z,17.60
2023-02-18T19:57:10.642Z,17.60
2023-02-18T19:59:41.070Z,17.60
2023-02-18T20:02:20.862Z,17.60
2023-02-18T20:04:48.504Z,17.60
2023-02-18T20:07:21.311Z,17.60
2023-02-18T20:09:57.508Z,17.60
2023-02-18T20:12:30.231Z,17.60
2023-02-18T20:15:04.487Z,17.60
2023-02-18T20:17:34.330Z,17.60
2023-02-18T20:20:04.787Z,17.60
2023-02-18T20:25:19.200Z,17.60
2023-02-18T20:28:00.328Z,17.50
2023-02-18T20:30:33.166Z,17.60
2023-02-18T20:33:03.009Z,17.50
2023-02-18T20:35:35.277Z,17.50
2023-02-18T20:38:06.490Z,17.50
2023-02-18T20:40:38.133Z,17.50
2023-02-18T20:43:08.482Z,17.50
2023-02-18T20:45:36.903Z,17.50
2023-02-18T20:48:08.222Z,17.50
2023-02-18T20:50:40.112Z,17.50
2023-02-18T20:53:10.292Z,17.50
2023-02-18T20:55:41.174Z,17.50
2023-02-18T20:58:10.143Z,17.50
2023-02-18T21:00:39.461Z,17.50
2023-02-18T21:03:07.357Z,17.50
2023-02-18T21:05:38.530Z,17.50
2023-02-18T21:08:13.098Z,17.50
2023-02-18T21:10:45.067Z,17.50
2023-02-18T21:13:17.370Z,17.50
2023-02-18T21:15:49.561Z,17.50
2023-02-18T21:18:23.483Z,17.50
2023-02-18T21:20:55.539Z,17.50
2023-02-18T21:23:26.931Z,17.50
2023-02-18T21:26:02.980Z,17.40
2023-02-18T21:28:32.507Z,17.50
2023-02-18T21:31:03.190Z,17.40
2023-02-18T21:33:31.534Z,17.40
2023-02-18T21:36:15.701Z,17.50
2023-02-18T21:38:45.827Z,17.50
2023-02-18T21:41:15.332Z,17.40
2023-02-18T21:43:49.445Z,17.50
2023-02-18T21:46:28.556Z,17.40
2023-02-18T21:49:20.891Z,17.50
2023-02-18T21:52:02.228Z,17.50
2023-02-18T21:54:39.443Z,17.40
2023-02-18T21:57:15.122Z,17.40
2023-02-18T21:59:48.828Z,17.50
2023-02-18T22:02:36.492Z,17.40
2023-02-18T22:05:10.876Z,17.40
2023-02-18T22:07:39.695Z,17.50
2023-02-18T22:10:10.147Z,17.40
2023-02-18T22:12:40.267Z,17.50
2023-02-18T22:15:12.817Z,17.40
2023-02-18T22:17:44.350Z,17.40
2023-02-18T22:20:15.649Z,17.40
2023-02-18T22:22:47.591Z,17.40
2023-02-18T22:25:17.962Z,17.40
2023-02-18T22:27:57.832Z,17.40
2023-02-18T22:30:27.654Z,17.50
2023-02-18T22:32:55.763Z,17.40
2023-02-18T22:35:27.128Z,17.40
2023-02-18T22:37:58.092Z,17.40
2023-02-18T22:40:29.979Z,17.40
2023-02-18T22:43:01.210Z,17.40
2023-02-18T22:45:31.657Z,17.40
2023-02-18T22:48:05.135Z,17.40
2023-02-18T22:50:37.983Z,17.40
2023-02-18T22:53:11.392Z,17.40
2023-02-18T22:55:41.391Z,17.40
2023-02-18T22:58:13.778Z,17.40
2023-02-18T23:00:45.430Z,17.40
2023-02-18T23:03:20.157Z,17.40
2023-02-18T23:05:50.755Z,17.40
2023-02-18T23:08:20.736Z,17.40
2023-02-18T23:10:47.701Z,17.40
2023-02-18T23:13:23.112Z,17.40
2023-02-18T23:16:08.937Z,17.40
2023-02-18T23:18:37.510Z,17.40
2023-02-18T23:21:19.870Z,17.40
2023-02-18T23:23:55.786Z,17.40
2023-02-18T23:26:32.060Z,17.40
2023-02-18T23:29:03.083Z,17.40
2023-02-18T23:31:30.076Z,17.40
2023-02-18T23:34:00.346Z,17.40
2023-02-18T23:36:37.221Z,17.40
2023-02-18T23:41:55.167Z,17.40
2023-02-18T23:44:29.055Z,17.40
2023-02-18T23:46:59.388Z,17.30
2023-02-18T23:49:29.156Z,17.40
2023-02-18T23:52:00.622Z,17.30
2023-02-18T23:54:31.857Z,17.40
2023-02-18T23:57:03.818Z,17.40
2023-02-18T23:59:34.633Z,17.40
